sensor_id;sensor_type;location;lat;lon;timestamp;pressure;altitude;pressure_sealevel;temperature;humidity
69316;BME280;56445;43.552;5.034;2023-05-02T05:36:18;101250.44;;;31.58;18.08
69316;BME280;56445;43.552;5.034;2023-05-02T05:38:49;101265.66;;;31.81;18.43
69316;BME280;56445;43.552;5.034;2023-05-02T05:41:17;101265.72;;;31.94;18.26
69316;BME280;56445;43.552;5.034;2023-05-02T05:43:44;101245.09;;;31.86;18.01
69316;BME280;56445;43.552;5.034;2023-05-02T05:46:11;101244.63;;;31.84;18.23
69316;BME280;56445;43.552;5.034;2023-05-02T05:48:40;101272.69;;;32.00;18.17
69316;BME280;56445;43.552;5.034;2023-05-02T05:51:07;101236.13;;;31.80;17.78
69316;BME280;56445;43.552;5.034;2023-05-02T05:53:35;101259.88;;;31.99;18.23
69316;BME280;56445;43.552;5.034;2023-05-02T05:56:11;101247.75;;;31.82;18.10
69316;BME280;56445;43.552;5.034;2023-05-02T05:58:39;101279.94;;;32.01;18.12
69316;BME280;56445;43.552;5.034;2023-05-02T06:01:07;101278.09;;;32.05;18.21
69316;BME280;56445;43.552;5.034;2023-05-02T06:03:35;101263.72;;;31.94;18.29
69316;BME280;56445;43.552;5.034;2023-05-02T06:06:02;101262.03;;;32.02;18.25
69316;BME280;56445;43.552;5.034;2023-05-02T06:08:30;101291.75;;;32.19;18.09
69316;BME280;56445;43.552;5.034;2023-05-02T06:10:57;101247.59;;;32.00;18.19
69316;BME280;56445;43.552;5.034;2023-05-02T06:13:25;101263.59;;;32.12;18.41
69316;BME280;56445;43.552;5.034;2023-05-02T06:15:52;101253.31;;;32.04;18.13
69316;BME280;56445;43.552;5.034;2023-05-02T06:18:22;101263.34;;;32.17;18.37
69316;BME280;56445;43.552;5.034;2023-05-02T06:21:02;101254.88;;;32.13;17.92
69316;BME280;56445;43.552;5.034;2023-05-02T06:23:34;101264.06;;;32.26;18.21
69316;BME280;56445;43.552;5.034;2023-05-02T06:26:05;101281.44;;;32.32;18.17
69316;BME280;56445;43.552;5.034;2023-05-02T06:38:05;101255.50;;;32.31;18.36
69316;BME280;56445;43.552;5.034;2023-05-02T06:40:44;101298.94;;;32.53;18.45
69316;BME280;56445;43.552;5.034;2023-05-02T06:43:12;101280.53;;;32.52;18.47
69316;BME280;56445;43.552;5.034;2023-05-02T06:45:39;101273.94;;;32.57;17.99
69316;BME280;56445;43.552;5.034;2023-05-02T06:48:31;101285.25;;;32.60;17.98
69316;BME280;56445;43.552;5.034;2023-05-02T06:51:22;101276.13;;;32.51;18.62
69316;BME280;56445;43.552;5.034;2023-05-02T06:54:13;101256.78;;;32.46;18.57
69316;BME280;56445;43.552;5.034;2023-05-02T06:57:04;101286.53;;;32.63;18.41
69316;BME280;56445;43.552;5.034;2023-05-02T06:59:55;101260.97;;;32.52;17.84
69316;BME280;56445;43.552;5.034;2023-05-02T07:02:48;101260.31;;;32.55;18.55
69316;BME280;56445;43.552;5.034;2023-05-02T07:05:45;101254.25;;;32.53;18.33
69316;BME280;56445;43.552;5.034;2023-05-02T07:08:40;101264.06;;;32.72;18.40
69316;BME280;56445;43.552;5.034;2023-05-02T07:11:35;101276.75;;;32.69;18.66
69316;BME280;56445;43.552;5.034;2023-05-02T07:14:28;101284.19;;;32.77;18.31
69316;BME280;56445;43.552;5.034;2023-05-02T07:17:20;101260.56;;;32.63;18.59
69316;BME280;56445;43.552;5.034;2023-05-02T07:20:11;101283.63;;;32.84;18.46
69316;BME280;56445;43.552;5.034;2023-05-02T07:23:07;101249.63;;;32.70;18.57
69316;BME280;56445;43.552;5.034;2023-05-02T07:26:10;101283.28;;;32.98;18.54
69316;BME280;56445;43.552;5.034;2023-05-02T07:28:37;101280.50;;;33.10;18.39
69316;BME280;56445;43.552;5.034;2023-05-02T07:31:04;101275.97;;;33.18;18.10
69316;BME280;56445;43.552;5.034;2023-05-02T07:33:31;101271.16;;;33.18;18.10
69316;BME280;56445;43.552;5.034;2023-05-02T07:39:05;101259.19;;;33.18;18.35
69316;BME280;56445;43.552;5.034;2023-05-02T07:41:38;101254.25;;;33.27;18.64
69316;BME280;56445;43.552;5.034;2023-05-02T07:44:10;101251.00;;;33.25;18.38
69316;BME280;56445;43.552;5.034;2023-05-02T07:46:38;101271.94;;;33.44;18.23
69316;BME280;56445;43.552;5.034;2023-05-02T07:49:05;101278.66;;;33.55;18.17
69316;BME280;56445;43.552;5.034;2023-05-02T07:51:32;101277.97;;;33.58;18.54
69316;BME280;56445;43.552;5.034;2023-05-02T07:54:20;101277.38;;;33.65;18.02
69316;BME280;56445;43.552;5.034;2023-05-02T07:56:48;101278.22;;;33.65;18.20
69316;BME280;56445;43.552;5.034;2023-05-02T07:59:21;101290.41;;;33.73;18.21
69316;BME280;56445;43.552;5.034;2023-05-02T08:01:57;101271.19;;;33.71;18.15
69316;BME280;56445;43.552;5.034;2023-05-02T08:04:48;101287.47;;;33.82;18.48
69316;BME280;56445;43.552;5.034;2023-05-02T08:07:15;101277.09;;;33.82;18.08
69316;BME280;56445;43.552;5.034;2023-05-02T08:09:42;101270.69;;;33.82;18.12
69316;BME280;56445;43.552;5.034;2023-05-02T08:12:10;101262.13;;;33.90;18.16
69316;BME280;56445;43.552;5.034;2023-05-02T08:14:39;101258.25;;;33.95;18.32
69316;BME280;56445;43.552;5.034;2023-05-02T08:17:12;101277.06;;;34.10;18.22
69316;BME280;56445;43.552;5.034;2023-05-02T08:19:51;101263.44;;;34.09;18.53
69316;BME280;56445;43.552;5.034;2023-05-02T08:22:31;101256.66;;;34.10;18.32
69316;BME280;56445;43.552;5.034;2023-05-02T08:25:01;101277.84;;;34.23;18.38
69316;BME280;56445;43.552;5.034;2023-05-02T08:27:28;101257.91;;;34.12;18.31
69316;BME280;56445;43.552;5.034;2023-05-02T08:30:14;101270.25;;;34.24;18.31
69316;BME280;56445;43.552;5.034;2023-05-02T08:33:52;101285.63;;;34.46;18.16
69316;BME280;56445;43.552;5.034;2023-05-02T08:36:37;101287.72;;;34.49;18.48
69316;BME280;56445;43.552;5.034;2023-05-02T08:43:15;101258.81;;;34.45;18.32
69316;BME280;56445;43.552;5.034;2023-05-02T08:46:00;101282.78;;;34.74;18.50
69316;BME280;56445;43.552;5.034;2023-05-02T08:48:43;101252.00;;;34.62;18.29
69316;BME280;56445;43.552;5.034;2023-05-02T08:51:31;101265.53;;;34.72;18.46
69316;BME280;56445;43.552;5.034;2023-05-02T08:54:02;101263.22;;;34.78;18.04
69316;BME280;56445;43.552;5.034;2023-05-02T08:56:29;101269.38;;;34.83;18.16
69316;BME280;56445;43.552;5.034;2023-05-02T08:58:58;101265.31;;;34.81;18.09
69316;BME280;56445;43.552;5.034;2023-05-02T09:01:29;101248.50;;;34.81;18.15
69316;BME280;56445;43.552;5.034;2023-05-02T09:03:57;101265.66;;;34.95;18.34
69316;BME280;56445;43.552;5.034;2023-05-02T09:06:25;101272.59;;;35.01;18.17
69316;BME280;56445;43.552;5.034;2023-05-02T09:08:59;101286.91;;;35.12;18.23
69316;BME280;56445;43.552;5.034;2023-05-02T09:11:28;101293.59;;;35.23;18.33
69316;BME280;56445;43.552;5.034;2023-05-02T09:13:55;101296.56;;;35.30;18.20
69316;BME280;56445;43.552;5.034;2023-05-02T09:19:22;101298.47;;;35.26;18.03
69316;BME280;56445;43.552;5.034;2023-05-02T09:22:08;101306.13;;;35.45;18.42
69316;BME280;56445;43.552;5.034;2023-05-02T09:24:37;101301.09;;;35.54;18.20
69316;BME280;56445;43.552;5.034;2023-05-02T09:27:04;101279.75;;;35.50;18.30
69316;BME280;56445;43.552;5.034;2023-05-02T09:29:32;101304.31;;;35.72;18.25
69316;BME280;56445;43.552;5.034;2023-05-02T09:32:05;101294.72;;;35.73;18.29
69316;BME280;56445;43.552;5.034;2023-05-02T09:34:33;101304.69;;;35.90;18.01
69316;BME280;56445;43.552;5.034;2023-05-02T09:37:00;101300.91;;;36.02;18.20
69316;BME280;56445;43.552;5.034;2023-05-02T09:39:41;101314.50;;;36.20;18.00
69316;BME280;56445;43.552;5.034;2023-05-02T09:42:32;101293.38;;;36.26;17.86
69316;BME280;56445;43.552;5.034;2023-05-02T09:45:03;101307.09;;;36.54;18.29
69316;BME280;56445;43.552;5.034;2023-05-02T09:47:30;101320.00;;;36.78;18.24
69316;BME280;56445;43.552;5.034;2023-05-02T09:49:58;101292.03;;;36.89;17.90
69316;BME280;56445;43.552;5.034;2023-05-02T09:52:25;101313.50;;;37.24;17.80
69316;BME280;56445;43.552;5.034;2023-05-02T09:54:52;101304.88;;;37.40;17.95
69316;BME280;56445;43.552;5.034;2023-05-02T09:57:43;101285.91;;;37.63;18.05
69316;BME280;56445;43.552;5.034;2023-05-02T10:00:12;101304.06;;;38.00;17.90
69316;BME280;56445;43.552;5.034;2023-05-02T10:02:41;101313.97;;;38.61;18.06
69316;BME280;56445;43.552;5.034;2023-05-02T10:05:11;101332.66;;;39.32;17.87
69316;BME280;56445;43.552;5.034;2023-05-02T10:07:40;101298.63;;;39.84;17.71
69316;BME280;56445;43.552;5.034;2023-05-02T10:10:14;101329.09;;;40.44;17.94
69316;BME280;56445;43.552;5.034;2023-05-02T10:13:07;101322.66;;;40.98;17.87
69316;BME280;56445;43.552;5.034;2023-05-02T10:22:46;101329.22;;;42.01;17.66
69316;BME280;56445;43.552;5.034;2023-05-02T10:25:41;101325.47;;;42.22;17.79
69316;BME280;56445;43.552;5.034;2023-05-02T10:28:19;101339.94;;;42.42;17.77
69316;BME280;56445;43.552;5.034;2023-05-02T10:30:52;101320.09;;;42.42;17.80
69316;BME280;56445;43.552;5.034;2023-05-02T10:33:21;101345.41;;;42.71;17.53
69316;BME280;56445;43.552;5.034;2023-05-02T10:35:49;101326.28;;;42.78;17.50
69316;BME280;56445;43.552;5.034;2023-05-02T10:38:21;101334.72;;;42.89;17.66
69316;BME280;56445;43.552;5.034;2023-05-02T10:41:17;101346.75;;;43.04;17.64
69316;BME280;56445;43.552;5.034;2023-05-02T10:43:53;101332.91;;;43.10;17.59
69316;BME280;56445;43.552;5.034;2023-05-02T10:46:54;101333.25;;;43.15;17.41
69316;BME280;56445;43.552;5.034;2023-05-02T10:52:25;101342.44;;;43.30;17.52
69316;BME280;56445;43.552;5.034;2023-05-02T10:55:24;101323.03;;;43.22;17.23
69316;BME280;56445;43.552;5.034;2023-05-02T11:00:49;101334.13;;;43.47;17.07
69316;BME280;56445;43.552;5.034;2023-05-02T11:06:27;101331.13;;;43.61;16.76
69316;BME280;56445;43.552;5.034;2023-05-02T11:11:45;101318.06;;;43.71;16.84
69316;BME280;56445;43.552;5.034;2023-05-02T11:19:29;101329.38;;;44.02;17.04
69316;BME280;56445;43.552;5.034;2023-05-02T11:24:46;101312.81;;;44.24;16.75
69316;BME280;56445;43.552;5.034;2023-05-02T11:30:00;101299.66;;;44.33;16.97
69316;BME280;56445;43.552;5.034;2023-05-02T11:35:21;101304.97;;;44.59;16.89
69316;BME280;56445;43.552;5.034;2023-05-02T11:37:55;101302.81;;;44.66;16.90
69316;BME280;56445;43.552;5.034;2023-05-02T11:40:24;101316.34;;;44.82;16.61
69316;BME280;56445;43.552;5.034;2023-05-02T11:42:53;101310.13;;;44.91;16.69
69316;BME280;56445;43.552;5.034;2023-05-02T11:45:35;101293.13;;;44.87;16.69
69316;BME280;56445;43.552;5.034;2023-05-02T11:48:06;101305.75;;;45.06;16.52
69316;BME280;56445;43.552;5.034;2023-05-02T11:50:49;101299.69;;;45.04;16.58
69316;BME280;56445;43.552;5.034;2023-05-02T11:53:21;101304.47;;;45.11;16.46
69316;BME280;56445;43.552;5.034;2023-05-02T11:58:19;101302.09;;;45.29;16.47
69316;BME280;56445;43.552;5.034;2023-05-02T12:00:47;101301.13;;;45.36;16.63
69316;BME280;56445;43.552;5.034;2023-05-02T12:06:06;101290.56;;;45.37;16.52
69316;BME280;56445;43.552;5.034;2023-05-02T12:08:36;101279.22;;;45.33;16.46
69316;BME280;56445;43.552;5.034;2023-05-02T12:11:05;101289.94;;;45.45;16.43
69316;BME280;56445;43.552;5.034;2023-05-02T12:13:33;101302.38;;;45.55;16.21
69316;BME280;56445;43.552;5.034;2023-05-02T12:16:05;101295.16;;;45.50;16.47
69316;BME280;56445;43.552;5.034;2023-05-02T12:18:33;101292.31;;;45.50;16.09
69316;BME280;56445;43.552;5.034;2023-05-02T12:21:00;101300.03;;;45.50;16.38
69316;BME280;56445;43.552;5.034;2023-05-02T12:23:27;101291.94;;;45.48;16.07
69316;BME280;56445;43.552;5.034;2023-05-02T12:25:55;101301.50;;;45.58;16.20
69316;BME280;56445;43.552;5.034;2023-05-02T12:28:22;101299.00;;;45.60;16.04
69316;BME280;56445;43.552;5.034;2023-05-02T12:30:50;101303.03;;;45.63;16.00
69316;BME280;56445;43.552;5.034;2023-05-02T12:33:18;101297.38;;;45.59;16.00
69316;BME280;56445;43.552;5.034;2023-05-02T12:35:46;101286.06;;;45.56;16.03
69316;BME280;56445;43.552;5.034;2023-05-02T12:38:16;101288.84;;;45.59;16.19
69316;BME280;56445;43.552;5.034;2023-05-02T12:40:54;101301.72;;;45.67;16.16
69316;BME280;56445;43.552;5.034;2023-05-02T12:43:23;101290.09;;;45.58;16.03
69316;BME280;56445;43.552;5.034;2023-05-02T12:46:08;101306.13;;;45.72;16.11
69316;BME280;56445;43.552;5.034;2023-05-02T12:48:35;101301.13;;;45.76;16.23
69316;BME280;56445;43.552;5.034;2023-05-02T12:51:02;101278.84;;;45.71;15.80
69316;BME280;56445;43.552;5.034;2023-05-02T12:53:40;101289.19;;;45.81;15.88
69316;BME280;56445;43.552;5.034;2023-05-02T12:56:09;101274.22;;;45.77;15.85
69316;BME280;56445;43.552;5.034;2023-05-02T12:58:46;101271.22;;;45.84;16.01
69316;BME280;56445;43.552;5.034;2023-05-02T13:01:14;101267.47;;;45.87;15.71
69316;BME280;56445;43.552;5.034;2023-05-02T13:03:42;101276.94;;;46.01;15.96
69316;BME280;56445;43.552;5.034;2023-05-02T13:06:10;101269.63;;;46.00;15.73
69316;BME280;56445;43.552;5.034;2023-05-02T13:08:37;101268.69;;;46.06;15.60
69316;BME280;56445;43.552;5.034;2023-05-02T13:11:04;101270.63;;;46.09;15.75
69316;BME280;56445;43.552;5.034;2023-05-02T13:13:31;101257.88;;;45.98;15.58
69316;BME280;56445;43.552;5.034;2023-05-02T13:15:59;101268.16;;;45.91;15.65
69316;BME280;56445;43.552;5.034;2023-05-02T13:18:26;101268.38;;;45.84;15.67
69316;BME280;56445;43.552;5.034;2023-05-02T13:20:56;101268.16;;;45.75;15.75
69316;BME280;56445;43.552;5.034;2023-05-02T13:23:23;101272.34;;;45.70;15.68
69316;BME280;56445;43.552;5.034;2023-05-02T13:25:50;101267.16;;;45.65;15.44
69316;BME280;56445;43.552;5.034;2023-05-02T13:28:17;101259.91;;;45.61;15.64
69316;BME280;56445;43.552;5.034;2023-05-02T13:30:44;101261.97;;;45.60;15.70
69316;BME280;56445;43.552;5.034;2023-05-02T13:33:12;101254.34;;;45.53;15.59
69316;BME280;56445;43.552;5.034;2023-05-02T13:35:39;101254.78;;;45.52;15.62
69316;BME280;56445;43.552;5.034;2023-05-02T13:38:06;101246.06;;;45.43;15.58
69316;BME280;56445;43.552;5.034;2023-05-02T13:40:36;101252.41;;;45.50;15.56
69316;BME280;56445;43.552;5.034;2023-05-02T13:43:03;101262.34;;;45.42;15.55
69316;BME280;56445;43.552;5.034;2023-05-02T13:45:30;101257.38;;;45.46;15.65
69316;BME280;56445;43.552;5.034;2023-05-02T13:47:57;101254.31;;;45.37;15.51
69316;BME280;56445;43.552;5.034;2023-05-02T13:50:29;101259.13;;;45.40;15.27
69316;BME280;56445;43.552;5.034;2023-05-02T13:52:57;101253.97;;;45.35;15.46
69316;BME280;56445;43.552;5.034;2023-05-02T13:55:24;101257.97;;;45.38;15.27
69316;BME280;56445;43.552;5.034;2023-05-02T13:57:51;101252.34;;;45.34;15.28
69316;BME280;56445;43.552;5.034;2023-05-02T14:00:18;101252.88;;;45.29;15.55
69316;BME280;56445;43.552;5.034;2023-05-02T14:02:47;101246.41;;;45.25;15.70
69316;BME280;56445;43.552;5.034;2023-05-02T14:05:14;101240.19;;;45.10;15.19
69316;BME280;56445;43.552;5.034;2023-05-02T14:07:41;101240.81;;;45.01;15.39
69316;BME280;56445;43.552;5.034;2023-05-02T14:10:08;101225.69;;;44.81;15.25
69316;BME280;56445;43.552;5.034;2023-05-02T14:12:36;101230.09;;;44.65;15.06
69316;BME280;56445;43.552;5.034;2023-05-02T14:15:03;101252.97;;;44.58;15.44
69316;BME280;56445;43.552;5.034;2023-05-02T14:17:31;101240.94;;;44.23;15.12
69316;BME280;56445;43.552;5.034;2023-05-02T14:19:58;101255.47;;;44.02;15.63
69316;BME280;56445;43.552;5.034;2023-05-02T14:22:26;101238.00;;;43.76;15.18
69316;BME280;56445;43.552;5.034;2023-05-02T14:24:53;101245.41;;;43.66;15.21
69316;BME280;56445;43.552;5.034;2023-05-02T14:27:29;101250.50;;;43.51;15.62
69316;BME280;56445;43.552;5.034;2023-05-02T14:29:56;101243.44;;;43.32;15.28
69316;BME280;56445;43.552;5.034;2023-05-02T14:32:23;101245.91;;;43.27;15.71
69316;BME280;56445;43.552;5.034;2023-05-02T14:34:53;101247.69;;;43.13;15.36
69316;BME280;56445;43.552;5.034;2023-05-02T14:37:20;101251.91;;;43.02;15.42
69316;BME280;56445;43.552;5.034;2023-05-02T14:39:47;101229.34;;;42.84;15.70
69316;BME280;56445;43.552;5.034;2023-05-02T14:42:24;101247.97;;;42.85;15.40
69316;BME280;56445;43.552;5.034;2023-05-02T14:45:00;101206.88;;;42.62;15.51
69316;BME280;56445;43.552;5.034;2023-05-02T14:47:28;101222.66;;;42.63;15.68
69316;BME280;56445;43.552;5.034;2023-05-02T14:52:42;101214.41;;;42.34;15.24
69316;BME280;56445;43.552;5.034;2023-05-02T14:55:12;101212.84;;;42.26;15.42
69316;BME280;56445;43.552;5.034;2023-05-02T14:57:39;101219.38;;;42.19;15.37
69316;BME280;56445;43.552;5.034;2023-05-02T15:00:06;101206.91;;;42.10;15.54
69316;BME280;56445;43.552;5.034;2023-05-02T15:02:35;101227.50;;;42.17;15.74
69316;BME280;56445;43.552;5.034;2023-05-02T15:05:03;101212.19;;;42.00;15.48
69316;BME280;56445;43.552;5.034;2023-05-02T15:07:38;101222.75;;;41.96;15.45
69316;BME280;56445;43.552;5.034;2023-05-02T15:10:05;101223.63;;;41.90;15.52
69316;BME280;56445;43.552;5.034;2023-05-02T15:12:32;101221.28;;;41.81;15.46
69316;BME280;56445;43.552;5.034;2023-05-02T15:15:02;101218.09;;;41.72;15.62
69316;BME280;56445;43.552;5.034;2023-05-02T15:17:45;101205.19;;;41.56;15.57
69316;BME280;56445;43.552;5.034;2023-05-02T15:20:12;101206.06;;;41.46;15.66
69316;BME280;56445;43.552;5.034;2023-05-02T15:22:39;101214.13;;;41.51;15.55
69316;BME280;56445;43.552;5.034;2023-05-02T15:25:07;101201.25;;;41.39;15.16
69316;BME280;56445;43.552;5.034;2023-05-02T15:27:34;101204.47;;;41.41;15.48
69316;BME280;56445;43.552;5.034;2023-05-02T15:30:02;101197.25;;;41.30;15.42
69316;BME280;56445;43.552;5.034;2023-05-02T15:32:29;101196.06;;;41.20;15.56
69316;BME280;56445;43.552;5.034;2023-05-02T15:34:57;101199.69;;;41.13;15.66
69316;BME280;56445;43.552;5.034;2023-05-02T15:37:24;101188.81;;;41.08;15.38
69316;BME280;56445;43.552;5.034;2023-05-02T15:39:51;101193.28;;;41.02;15.52
69316;BME280;56445;43.552;5.034;2023-05-02T15:42:18;101202.56;;;41.06;15.48
69316;BME280;56445;43.552;5.034;2023-05-02T15:44:45;101184.44;;;40.82;15.31
69316;BME280;56445;43.552;5.034;2023-05-02T15:47:12;101200.22;;;40.79;15.36
69316;BME280;56445;43.552;5.034;2023-05-02T15:49:40;101195.75;;;40.71;15.51
69316;BME280;56445;43.552;5.034;2023-05-02T15:52:08;101189.72;;;40.62;15.65
69316;BME280;56445;43.552;5.034;2023-05-02T15:54:35;101184.47;;;40.57;15.47
69316;BME280;56445;43.552;5.034;2023-05-02T15:57:04;101178.03;;;40.53;15.66
69316;BME280;56445;43.552;5.034;2023-05-02T15:59:31;101192.56;;;40.55;15.60
69316;BME280;56445;43.552;5.034;2023-05-02T16:01:58;101181.25;;;40.40;15.62
69316;BME280;56445;43.552;5.034;2023-05-02T16:04:25;101190.56;;;40.34;15.56
69316;BME280;56445;43.552;5.034;2023-05-02T16:06:53;101186.09;;;40.36;15.54
69316;BME280;56445;43.552;5.034;2023-05-02T16:09:20;101200.66;;;40.31;15.67
69316;BME280;56445;43.552;5.034;2023-05-02T16:11:47;101192.97;;;40.17;15.58
69316;BME280;56445;43.552;5.034;2023-05-02T16:14:15;101194.97;;;40.17;15.70
69316;BME280;56445;43.552;5.034;2023-05-02T16:16:42;101202.63;;;40.13;15.82
69316;BME280;56445;43.552;5.034;2023-05-02T16:19:10;101188.09;;;40.00;15.54
69316;BME280;56445;43.552;5.034;2023-05-02T16:21:40;101195.78;;;40.07;15.52
69316;BME280;56445;43.552;5.034;2023-05-02T16:24:08;101198.19;;;40.04;15.71
69316;BME280;56445;43.552;5.034;2023-05-02T16:26:42;101208.28;;;39.98;15.74
69316;BME280;56445;43.552;5.034;2023-05-02T16:29:09;101204.25;;;39.92;15.65
69316;BME280;56445;43.552;5.034;2023-05-02T16:31:49;101197.31;;;39.79;15.47
69316;BME280;56445;43.552;5.034;2023-05-02T16:34:20;101199.75;;;39.70;15.52
69316;BME280;56445;43.552;5.034;2023-05-02T16:36:51;101222.34;;;39.70;15.70
69316;BME280;56445;43.552;5.034;2023-05-02T16:39:19;101211.41;;;39.64;15.42
69316;BME280;56445;43.552;5.034;2023-05-02T16:41:46;101219.09;;;39.64;15.37
69316;BME280;56445;43.552;5.034;2023-05-02T16:44:15;101198.88;;;39.51;15.74
69316;BME280;56445;43.552;5.034;2023-05-02T16:46:42;101196.44;;;39.46;15.44
69316;BME280;56445;43.552;5.034;2023-05-02T16:49:10;101220.25;;;39.49;15.71
69316;BME280;56445;43.552;5.034;2023-05-02T16:51:37;101192.34;;;39.33;15.75
69316;BME280;56445;43.552;5.034;2023-05-02T16:54:04;101214.16;;;39.43;15.74
69316;BME280;56445;43.552;5.034;2023-05-02T16:56:31;101199.59;;;39.34;15.65
69316;BME280;56445;43.552;5.034;2023-05-02T16:59:00;101200.38;;;39.31;15.35
69316;BME280;56445;43.552;5.034;2023-05-02T17:01:28;101201.19;;;39.27;15.66
69316;BME280;56445;43.552;5.034;2023-05-02T17:03:55;101218.09;;;39.24;15.49
69316;BME280;56445;43.552;5.034;2023-05-02T17:06:23;101217.28;;;39.23;15.88
69316;BME280;56445;43.552;5.034;2023-05-02T17:08:50;101218.06;;;39.13;15.65
69316;BME280;56445;43.552;5.034;2023-05-02T17:11:18;101201.06;;;39.06;15.59
69316;BME280;56445;43.552;5.034;2023-05-02T17:13:46;101226.94;;;39.15;15.87
69316;BME280;56445;43.552;5.034;2023-05-02T17:16:15;101204.69;;;38.99;15.57
69316;BME280;56445;43.552;5.034;2023-05-02T17:19:28;101226.88;;;39.08;15.91
69316;BME280;56445;43.552;5.034;2023-05-02T17:22:18;101218.00;;;39.02;15.64
69316;BME280;56445;43.552;5.034;2023-05-02T17:24:45;101218.72;;;38.96;15.63
69316;BME280;56445;43.552;5.034;2023-05-02T17:27:15;101243.69;;;38.94;15.69
69316;BME280;56445;43.552;5.034;2023-05-02T17:29:42;101216.59;;;38.78;15.84
69316;BME280;56445;43.552;5.034;2023-05-02T17:32:26;101229.94;;;38.81;15.69
69316;BME280;56445;43.552;5.034;2023-05-02T17:34:53;101235.94;;;38.76;15.95
69316;BME280;56445;43.552;5.034;2023-05-02T17:37:23;101216.09;;;38.62;15.58
69316;BME280;56445;43.552;5.034;2023-05-02T17:39:51;101223.78;;;38.65;15.95
69316;BME280;56445;43.552;5.034;2023-05-02T17:42:21;101222.09;;;38.53;15.45
69316;BME280;56445;43.552;5.034;2023-05-02T17:44:48;101225.72;;;38.54;15.56
69316;BME280;56445;43.552;5.034;2023-05-02T17:47:15;101244.22;;;38.55;15.73
69316;BME280;56445;43.552;5.034;2023-05-02T17:49:44;101229.66;;;38.45;15.86
69316;BME280;56445;43.552;5.034;2023-05-02T17:52:13;101223.94;;;38.38;15.48
69316;BME280;56445;43.552;5.034;2023-05-02T17:54:40;101241.72;;;38.46;15.91
69316;BME280;56445;43.552;5.034;2023-05-02T17:57:08;101239.63;;;38.36;15.41
69316;BME280;56445;43.552;5.034;2023-05-02T17:59:39;101244.03;;;38.37;15.97
69316;BME280;56445;43.552;5.034;2023-05-02T18:02:07;101237.59;;;38.36;15.67
69316;BME280;56445;43.552;5.034;2023-05-02T18:04:36;101231.91;;;38.25;15.75
69316;BME280;56445;43.552;5.034;2023-05-02T18:07:03;101243.59;;;38.27;15.64
69316;BME280;56445;43.552;5.034;2023-05-02T18:09:32;101233.47;;;38.23;15.81
69316;BME280;56445;43.552;5.034;2023-05-02T18:14:34;101218.75;;;38.03;15.83
69316;BME280;56445;43.552;5.034;2023-05-02T18:17:02;101223.47;;;37.92;15.43
69316;BME280;56445;43.552;5.034;2023-05-02T18:19:29;101245.19;;;37.91;15.65
69316;BME280;56445;43.552;5.034;2023-05-02T18:21:56;101244.25;;;37.80;15.40
69316;BME280;56445;43.552;5.034;2023-05-02T18:24:24;101256.81;;;37.86;15.95
69316;BME280;56445;43.552;5.034;2023-05-02T18:26:52;101258.75;;;37.82;15.79
69316;BME280;56445;43.552;5.034;2023-05-02T18:29:19;101263.16;;;37.79;15.99
69316;BME280;56445;43.552;5.034;2023-05-02T18:31:46;101253.06;;;37.75;15.89
69316;BME280;56445;43.552;5.034;2023-05-02T18:34:18;101238.44;;;37.62;16.10
69316;BME280;56445;43.552;5.034;2023-05-02T18:36:45;101257.75;;;37.63;16.10
69316;BME280;56445;43.552;5.034;2023-05-02T18:39:17;101268.59;;;37.61;15.83
69316;BME280;56445;43.552;5.034;2023-05-02T18:41:47;101264.88;;;37.57;15.70
69316;BME280;56445;43.552;5.034;2023-05-02T18:44:14;101272.22;;;37.62;15.85
69316;BME280;56445;43.552;5.034;2023-05-02T18:46:41;101266.00;;;37.49;15.84
69316;BME280;56445;43.552;5.034;2023-05-02T18:49:09;101272.38;;;37.46;16.05
69316;BME280;56445;43.552;5.034;2023-05-02T18:51:36;101280.88;;;37.49;15.66
69316;BME280;56445;43.552;5.034;2023-05-02T18:54:03;101265.81;;;37.35;15.83
69316;BME280;56445;43.552;5.034;2023-05-02T18:56:30;101296.53;;;37.47;15.78
69316;BME280;56445;43.552;5.034;2023-05-02T18:58:57;101287.22;;;37.43;16.05
69316;BME280;56445;43.552;5.034;2023-05-02T19:01:25;101278.63;;;37.32;15.73
69316;BME280;56445;43.552;5.034;2023-05-02T19:03:52;101289.47;;;37.30;16.34
69316;BME280;56445;43.552;5.034;2023-05-02T19:06:20;101265.22;;;37.22;15.74
69316;BME280;56445;43.552;5.034;2023-05-02T19:08:50;101292.66;;;37.28;16.09
69316;BME280;56445;43.552;5.034;2023-05-02T19:11:17;101296.22;;;37.25;16.16
69316;BME280;56445;43.552;5.034;2023-05-02T19:13:45;101282.84;;;37.15;15.84
69316;BME280;56445;43.552;5.034;2023-05-02T19:16:13;101289.53;;;37.07;15.69
69316;BME280;56445;43.552;5.034;2023-05-02T19:18:40;101309.31;;;37.14;16.00
69316;BME280;56445;43.552;5.034;2023-05-02T19:21:11;101309.31;;;37.14;15.93
69316;BME280;56445;43.552;5.034;2023-05-02T19:23:39;101308.44;;;37.10;15.87
69316;BME280;56445;43.552;5.034;2023-05-02T19:26:16;101291.34;;;36.96;15.75
69316;BME280;56445;43.552;5.034;2023-05-02T19:28:46;101324.44;;;37.06;15.87
69316;BME280;56445;43.552;5.034;2023-05-02T19:31:17;101303.28;;;36.89;16.16
69316;BME280;56445;43.552;5.034;2023-05-02T19:33:54;101292.72;;;36.82;16.28
69316;BME280;56445;43.552;5.034;2023-05-02T19:36:53;101326.25;;;36.91;15.85
69316;BME280;56445;43.552;5.034;2023-05-02T19:39:20;101307.88;;;36.74;15.91
69316;BME280;56445;43.552;5.034;2023-05-02T19:41:47;101334.69;;;36.91;16.12
69316;BME280;56445;43.552;5.034;2023-05-02T19:44:15;101318.25;;;36.70;15.95
69316;BME280;56445;43.552;5.034;2023-05-02T19:46:43;101346.16;;;36.82;16.05
69316;BME280;56445;43.552;5.034;2023-05-02T19:49:11;101325.38;;;36.64;16.18
69316;BME280;56445;43.552;5.034;2023-05-02T19:51:38;101339.44;;;36.64;15.91